createdAt,value
2023-04-12T00:00:23.036Z,8.07
2023-04-12T00:01:23.011Z,8.20
2023-04-12T00:02:23.209Z,8.14
2023-04-12T00:03:23.103Z,8.10
2023-04-12T00:04:23.047Z,8.17
2023-04-12T00:05:23.042Z,8.09
2023-04-12T00:06:22.926Z,8.18
2023-04-12T00:07:22.936Z,8.21
2023-04-12T00:08:22.889Z,8.28
2023-04-12T00:09:22.866Z,8.22
2023-04-12T00:10:22.857Z,8.24
2023-04-12T00:11:22.835Z,8.18
2023-04-12T00:12:22.852Z,8.21
2023-04-12T00:13:22.798Z,8.22
2023-04-12T00:14:22.782Z,8.18
2023-04-12T00:15:22.769Z,8.21
2023-04-12T00:16:22.820Z,8.25
2023-04-12T00:17:22.777Z,8.21
2023-04-12T00:18:22.786Z,8.18
2023-04-12T00:19:22.700Z,8.28
2023-04-12T00:20:22.689Z,8.12
2023-04-12T00:21:22.681Z,8.13
2023-04-12T00:22:22.703Z,8.13
2023-04-12T00:23:22.720Z,8.14
2023-04-12T00:24:22.609Z,8.14
2023-04-12T00:25:22.609Z,8.13
2023-04-12T00:26:22.578Z,8.18
2023-04-12T00:27:22.603Z,8.14
2023-04-12T00:28:22.588Z,8.20
2023-04-12T00:29:22.531Z,8.20
2023-04-12T00:30:22.504Z,8.18
2023-04-12T00:31:22.542Z,8.12
2023-04-12T00:32:22.535Z,8.12
2023-04-12T00:33:22.505Z,8.18
2023-04-12T00:34:22.592Z,8.07
2023-04-12T00:35:22.417Z,8.07
2023-04-12T00:36:22.405Z,8.00
2023-04-12T00:37:22.431Z,8.10
2023-04-12T00:38:22.375Z,8.06
2023-04-12T00:39:23.358Z,8.06
2023-04-12T00:40:22.355Z,8.06
2023-04-12T00:41:22.312Z,8.02
2023-04-12T00:42:22.330Z,8.03
2023-04-12T00:43:22.281Z,8.04
2023-04-12T00:44:22.282Z,8.04
2023-04-12T00:45:22.249Z,8.04
2023-04-12T00:46:22.296Z,8.06
2023-04-12T00:47:22.270Z,7.91
2023-04-12T00:48:22.206Z,8.03
2023-04-12T00:49:22.179Z,7.95
2023-04-12T00:50:22.177Z,8.07
2023-04-12T00:51:22.159Z,7.94
2023-04-12T00:52:22.177Z,7.96
2023-04-12T00:53:22.125Z,7.88
2023-04-12T00:54:22.120Z,7.86
2023-04-12T00:55:22.120Z,7.77
2023-04-12T00:56:22.058Z,7.81
2023-04-12T00:57:22.069Z,7.82
2023-04-12T00:58:22.026Z,7.82
2023-04-12T00:59:22.047Z,7.73
2023-04-12T01:00:21.990Z,7.73
2023-04-12T01:01:22.033Z,7.76
2023-04-12T01:02:22.100Z,7.73
2023-04-12T01:03:22.125Z,7.71
2023-04-12T01:04:21.922Z,7.82
2023-04-12T01:05:22.265Z,7.73
2023-04-12T01:06:21.886Z,7.71
2023-04-12T01:07:21.894Z,7.70
2023-04-12T01:08:21.849Z,7.69
2023-04-12T01:09:21.841Z,7.67
2023-04-12T01:10:21.826Z,7.69
2023-04-12T01:11:21.803Z,7.70
2023-04-12T01:12:21.823Z,7.63
2023-04-12T01:13:21.780Z,7.58
2023-04-12T01:14:21.764Z,7.69
2023-04-12T01:15:21.733Z,7.70
2023-04-12T01:16:21.765Z,7.71
2023-04-12T01:17:21.786Z,7.71
2023-04-12T01:18:21.839Z,7.69
2023-04-12T01:19:21.664Z,7.63
2023-04-12T01:20:21.682Z,7.66
2023-04-12T01:21:21.629Z,7.57
2023-04-12T01:22:21.667Z,7.52
2023-04-12T01:23:21.586Z,7.58
2023-04-12T01:24:21.576Z,7.55
2023-04-12T01:25:21.574Z,7.67
2023-04-12T01:26:21.661Z,7.58
2023-04-12T01:27:21.567Z,7.63
2023-04-12T01:28:21.505Z,7.58
2023-04-12T01:29:21.514Z,7.67
2023-04-12T01:30:21.511Z,7.63
2023-04-12T01:31:22.457Z,7.58
2023-04-12T01:32:21.501Z,7.73
2023-04-12T01:33:21.435Z,7.69
2023-04-12T01:34:21.405Z,7.58
2023-04-12T01:35:21.404Z,7.48
2023-04-12T01:36:21.391Z,7.45
2023-04-12T01:37:21.381Z,7.45
2023-04-12T01:38:21.343Z,7.55
2023-04-12T01:39:21.327Z,7.54
2023-04-12T01:40:21.310Z,7.50
2023-04-12T01:41:21.287Z,7.42
2023-04-12T01:42:21.289Z,7.55
2023-04-12T01:43:21.250Z,7.45
2023-04-12T01:44:21.232Z,7.62
2023-04-12T01:45:21.308Z,7.55
2023-04-12T01:46:21.204Z,7.55
2023-04-12T01:47:21.223Z,7.63
2023-04-12T01:48:21.199Z,7.52
2023-04-12T01:49:21.145Z,7.55
2023-04-12T01:50:21.143Z,7.57
2023-04-12T01:51:21.107Z,7.54
2023-04-12T01:52:21.152Z,7.63
2023-04-12T01:53:21.078Z,7.67
2023-04-12T01:54:21.072Z,7.57
2023-04-12T01:55:21.039Z,7.58
2023-04-12T01:56:21.047Z,7.60
2023-04-12T01:57:21.040Z,7.60
2023-04-12T01:58:20.996Z,7.55
2023-04-12T01:59:20.991Z,7.58
2023-04-12T02:00:20.975Z,7.48
2023-04-12T02:01:21.029Z,7.42
2023-04-12T02:02:21.082Z,7.54
2023-04-12T02:03:21.061Z,7.48
2023-04-12T02:04:20.897Z,7.50
2023-04-12T02:05:20.891Z,7.47
2023-04-12T02:06:20.894Z,7.52
2023-04-12T02:07:20.879Z,7.42
2023-04-12T02:08:20.901Z,7.47
2023-04-12T02:09:20.815Z,7.33
2023-04-12T02:10:20.793Z,7.37
2023-04-12T02:11:20.779Z,7.42
2023-04-12T02:12:20.824Z,7.41
2023-04-12T02:13:20.788Z,7.34
2023-04-12T02:14:20.820Z,7.30
2023-04-12T02:15:20.802Z,7.33
2023-04-12T02:16:20.842Z,7.33
2023-04-12T02:17:20.756Z,7.29
2023-04-12T02:18:20.802Z,7.39
2023-04-12T02:19:20.633Z,7.42
2023-04-12T02:20:20.632Z,7.50
2023-04-12T02:21:20.606Z,7.44
2023-04-12T02:22:20.634Z,7.51
2023-04-12T02:23:20.567Z,7.50
2023-04-12T02:24:20.563Z,7.52
2023-04-12T02:25:20.545Z,7.48
2023-04-12T02:26:20.520Z,7.51
2023-04-12T02:27:20.532Z,7.45
2023-04-12T02:28:20.485Z,7.51
2023-04-12T02:29:20.469Z,7.54
2023-04-12T02:30:20.447Z,7.52
2023-04-12T02:31:20.531Z,7.66
2023-04-12T02:32:20.462Z,7.55
2023-04-12T02:33:20.404Z,7.62
2023-04-12T02:34:20.379Z,7.58
2023-04-12T02:35:20.451Z,7.60
2023-04-12T02:36:20.343Z,7.55
2023-04-12T02:37:20.364Z,7.58
2023-04-12T02:38:20.310Z,7.54
2023-04-12T02:39:20.304Z,7.67
2023-04-12T02:40:20.276Z,7.54
2023-04-12T02:41:20.267Z,7.66
2023-04-12T02:42:20.272Z,7.60
2023-04-12T02:43:21.222Z,7.62
2023-04-12T02:44:20.209Z,7.67
2023-04-12T02:45:20.208Z,7.69
2023-04-12T02:46:20.210Z,7.66
2023-04-12T02:47:20.215Z,7.77
2023-04-12T02:48:20.150Z,7.69
2023-04-12T02:49:20.174Z,7.67
2023-04-12T02:50:20.119Z,7.69
2023-04-12T02:51:20.092Z,7.73
2023-04-12T02:52:20.106Z,7.77
2023-04-12T02:53:20.053Z,7.66
2023-04-12T02:54:20.049Z,7.70
2023-04-12T02:55:20.022Z,7.77
2023-04-12T02:56:20.011Z,7.77
2023-04-12T02:57:20.020Z,7.66
2023-04-12T02:58:19.976Z,7.66
2023-04-12T02:59:19.950Z,7.67
2023-04-12T03:00:19.936Z,7.66
2023-04-12T03:01:19.984Z,7.70
2023-04-12T03:02:20.008Z,7.62
2023-04-12T03:03:20.036Z,7.67
2023-04-12T03:04:21.162Z,7.69
2023-04-12T03:05:19.870Z,7.69
2023-04-12T03:06:19.841Z,7.73
2023-04-12T03:07:19.846Z,7.58
2023-04-12T03:08:19.792Z,7.60
2023-04-12T03:09:19.783Z,7.60
2023-04-12T03:10:19.874Z,7.69
2023-04-12T03:11:19.751Z,7.52
2023-04-12T03:12:19.769Z,7.55
2023-04-12T03:13:19.715Z,7.60
2023-04-12T03:14:19.713Z,7.50
2023-04-12T03:15:19.679Z,7.63
2023-04-12T03:16:19.768Z,7.50
2023-04-12T03:17:19.678Z,7.50
2023-04-12T03:18:19.631Z,7.52
2023-04-12T03:19:19.622Z,7.42
2023-04-12T03:20:19.617Z,7.51
2023-04-12T03:21:19.576Z,7.44
2023-04-12T03:22:19.600Z,7.47
2023-04-12T03:23:19.548Z,7.39
2023-04-12T03:24:19.538Z,7.37
2023-04-12T03:25:19.512Z,7.34
2023-04-12T03:26:19.496Z,7.24
2023-04-12T03:27:19.502Z,7.21
2023-04-12T03:28:19.456Z,7.26
2023-04-12T03:29:19.451Z,7.14
2023-04-12T03:30:19.424Z,7.18
2023-04-12T03:31:19.421Z,7.15
2023-04-12T03:32:19.422Z,7.15
2023-04-12T03:33:19.406Z,7.23
2023-04-12T03:34:19.364Z,7.14
2023-04-12T03:35:19.449Z,7.15
2023-04-12T03:36:19.344Z,7.09
2023-04-12T03:37:19.358Z,7.05
2023-04-12T03:38:19.290Z,7.16
2023-04-12T03:39:19.279Z,7.19
2023-04-12T03:40:19.254Z,7.12
2023-04-12T03:41:19.246Z,7.19
2023-04-12T03:42:32.431Z,7.05
2023-04-12T03:43:21.303Z,7.01
2023-04-12T03:44:19.186Z,7.05
2023-04-12T03:45:19.175Z,6.99
2023-04-12T03:46:19.176Z,6.94
2023-04-12T03:47:19.180Z,6.96
2023-04-12T03:48:19.134Z,6.93
2023-04-12T03:49:19.105Z,6.89
2023-04-12T03:50:19.094Z,6.90
2023-04-12T03:51:19.061Z,6.79
2023-04-12T03:52:19.089Z,6.83
2023-04-12T03:53:19.043Z,6.79
2023-04-12T03:54:19.022Z,6.79
2023-04-12T03:55:19.000Z,6.73
2023-04-12T03:56:18.976Z,6.65
2023-04-12T03:57:18.991Z,6.63
2023-04-12T03:58:18.983Z,6.53
2023-04-12T03:59:18.930Z,6.53
2023-04-12T04:00:18.914Z,6.54
2023-04-12T04:01:18.932Z,6.51
2023-04-12T04:02:19.018Z,6.53
2023-04-12T04:03:18.972Z,6.53
2023-04-12T04:04:19.060Z,6.61
2023-04-12T04:05:18.909Z,6.58
2023-04-12T04:06:18.829Z,6.55
2023-04-12T04:07:18.839Z,6.46
2023-04-12T04:08:45.192Z,6.53
2023-04-12T04:09:18.767Z,6.43
2023-04-12T04:10:18.748Z,6.40
2023-04-12T04:11:18.751Z,6.43
2023-04-12T04:12:18.759Z,6.39
2023-04-12T04:13:18.713Z,6.48
2023-04-12T04:14:18.690Z,6.48
2023-04-12T04:15:19.691Z,6.39
2023-04-12T04:16:18.741Z,6.40
2023-04-12T04:17:18.698Z,6.45
2023-04-12T04:18:18.658Z,6.36
2023-04-12T04:19:18.603Z,6.36
2023-04-12T04:20:18.617Z,6.33
2023-04-12T04:21:18.571Z,6.35
2023-04-12T04:22:18.621Z,6.27
2023-04-12T04:23:18.555Z,6.30
2023-04-12T04:24:18.550Z,6.30
2023-04-12T04:25:18.525Z,6.28
2023-04-12T04:26:18.497Z,6.28
2023-04-12T04:27:18.518Z,6.30
2023-04-12T04:28:18.477Z,6.33
2023-04-12T04:29:18.456Z,6.20
2023-04-12T04:30:18.423Z,6.27
2023-04-12T04:31:18.413Z,6.21
2023-04-12T04:32:18.460Z,6.25
2023-04-12T04:33:18.361Z,6.24
2023-04-12T04:34:18.371Z,6.21
2023-04-12T04:35:18.341Z,6.16
2023-04-12T04:36:18.319Z,6.17
2023-04-12T04:37:18.333Z,6.20
2023-04-12T04:38:18.274Z,6.25
2023-04-12T04:39:18.254Z,6.13
2023-04-12T04:40:18.236Z,6.24
2023-04-12T04:41:18.221Z,6.20
2023-04-12T04:42:18.239Z,6.19
2023-04-12T04:43:18.181Z,6.06
2023-04-12T04:44:18.171Z,6.14
2023-04-12T04:45:18.170Z,6.16
2023-04-12T04:46:18.136Z,6.24
2023-04-12T04:47:18.148Z,6.17
2023-04-12T04:48:18.094Z,6.30
2023-04-12T04:49:18.096Z,6.19
2023-04-12T04:50:18.064Z,6.10
2023-04-12T04:51:18.061Z,6.21
2023-04-12T04:52:18.061Z,6.27
2023-04-12T04:53:18.020Z,6.24
2023-04-12T04:54:17.990Z,6.20
2023-04-12T04:55:18.017Z,6.17
2023-04-12T04:56:17.969Z,6.24
2023-04-12T04:57:17.994Z,6.14
2023-04-12T04:58:17.929Z,6.32
2023-04-12T04:59:17.912Z,6.20
2023-04-12T05:00:17.886Z,6.30
2023-04-12T05:01:17.913Z,6.25
2023-04-12T05:02:17.892Z,6.24
2023-04-12T05:03:17.929Z,6.27
2023-04-12T05:04:17.888Z,6.25
2023-04-12T05:05:17.810Z,6.32
2023-04-12T05:06:17.783Z,6.32
2023-04-12T05:07:17.793Z,6.25
2023-04-12T05:08:17.734Z,6.35
2023-04-12T05:09:17.731Z,6.35
2023-04-12T05:10:17.722Z,6.46
2023-04-12T05:11:17.702Z,6.38
2023-04-12T05:12:17.709Z,6.35
2023-04-12T05:13:17.664Z,6.39
2023-04-12T05:14:17.695Z,6.43
2023-04-12T05:15:17.623Z,6.42
2023-04-12T05:16:17.699Z,6.40
2023-04-12T05:17:17.622Z,6.43
2023-04-12T05:18:17.568Z,6.54
2023-04-12T05:19:17.546Z,6.40
2023-04-12T05:20:17.547Z,6.46
2023-04-12T05:21:17.542Z,6.42
2023-04-12T05:22:17.527Z,6.50
2023-04-12T05:23:17.527Z,6.60
2023-04-12T05:24:17.482Z,6.53
2023-04-12T05:25:17.511Z,6.61
2023-04-12T05:26:17.464Z,6.58
2023-04-12T05:27:17.467Z,6.69
2023-04-12T05:28:17.436Z,6.69
2023-04-12T05:29:17.537Z,6.82
2023-04-12T05:30:17.361Z,6.79
2023-04-12T05:31:17.434Z,6.79
2023-04-12T05:32:17.369Z,6.78
2023-04-12T05:33:17.318Z,6.69
2023-04-12T05:34:17.298Z,6.72
2023-04-12T05:35:17.355Z,6.75
2023-04-12T05:36:17.264Z,6.65
2023-04-12T05:37:17.294Z,6.64
2023-04-12T05:38:17.247Z,6.63
2023-04-12T05:39:18.819Z,6.57
2023-04-12T05:40:17.194Z,6.63
2023-04-12T05:41:17.180Z,6.60
2023-04-12T05:42:17.225Z,6.57
2023-04-12T05:43:17.144Z,6.64
2023-04-12T05:44:17.142Z,6.61
2023-04-12T05:45:17.155Z,6.61
2023-04-12T05:46:17.135Z,6.61
2023-04-12T05:47:17.171Z,6.68
2023-04-12T05:48:17.092Z,6.61
2023-04-12T05:49:17.077Z,6.60
2023-04-12T05:50:17.030Z,6.57
2023-04-12T05:51:19.506Z,6.58
2023-04-12T05:52:18.030Z,6.64
2023-04-12T05:53:16.967Z,6.69
2023-04-12T05:54:16.957Z,6.69
2023-04-12T05:55:16.942Z,6.69
2023-04-12T05:56:16.940Z,6.63
2023-04-12T05:57:16.998Z,6.69
2023-04-12T05:58:16.888Z,6.76
2023-04-12T05:59:16.885Z,6.75
2023-04-12T06:00:16.850Z,6.72
2023-04-12T06:01:16.855Z,6.75
2023-04-12T06:02:17.195Z,6.72
2023-04-12T06:03:16.916Z,6.78
2023-04-12T06:04:17.023Z,6.61
2023-04-12T06:05:16.860Z,6.69
2023-04-12T06:06:16.737Z,6.71
2023-04-12T06:07:16.761Z,6.63
2023-04-12T06:08:16.723Z,6.79
2023-04-12T06:09:16.709Z,6.79
2023-04-12T06:10:16.682Z,6.78
2023-04-12T06:11:16.675Z,6.79
2023-04-12T06:12:16.680Z,6.83
2023-04-12T06:13:16.623Z,6.90
2023-04-12T06:14:16.612Z,6.81
2023-04-12T06:15:17.601Z,6.93
2023-04-12T06:16:16.658Z,6.89
2023-04-12T06:17:16.602Z,6.83
2023-04-12T06:18:16.554Z,6.76
2023-04-12T06:19:16.527Z,6.86
2023-04-12T06:20:16.560Z,6.82
2023-04-12T06:21:16.496Z,6.79
2023-04-12T06:22:16.504Z,6.87
2023-04-12T06:23:16.470Z,6.83
2023-04-12T06:24:16.466Z,6.90
2023-04-12T06:25:16.440Z,6.93
2023-04-12T06:26:17.966Z,6.99
2023-04-12T06:27:16.446Z,6.86
2023-04-12T06:28:16.391Z,6.89
2023-04-12T06:29:16.378Z,7.00
2023-04-12T06:30:16.353Z,7.00
2023-04-12T06:31:16.396Z,6.96
2023-04-12T06:32:16.351Z,7.01
2023-04-12T06:33:16.303Z,7.00
2023-04-12T06:34:16.261Z,7.05
2023-04-12T06:35:16.280Z,7.05
2023-04-12T06:36:16.394Z,6.94
2023-04-12T06:37:16.241Z,7.00
2023-04-12T06:38:16.239Z,7.04
2023-04-12T06:39:16.215Z,6.99
2023-04-12T06:40:16.167Z,7.07
2023-04-12T06:41:16.148Z,6.99
2023-04-12T06:42:16.165Z,7.04
2023-04-12T06:43:16.107Z,6.91
2023-04-12T06:44:16.117Z,7.01
2023-04-12T06:45:16.124Z,6.89
2023-04-12T06:46:16.121Z,6.99
2023-04-12T06:47:16.151Z,7.01
2023-04-12T06:48:16.034Z,7.00
2023-04-12T06:49:16.005Z,7.05
2023-04-12T06:50:16.001Z,7.01
2023-04-12T06:51:15.964Z,7.18
2023-04-12T06:52:16.072Z,7.09
2023-04-12T06:53:15.940Z,6.96
2023-04-12T06:54:16.194Z,7.04
2023-04-12T06:55:15.904Z,6.94
2023-04-12T06:56:18.347Z,7.04
2023-04-12T06:57:16.900Z,7.04
2023-04-12T06:58:15.877Z,6.97
2023-04-12T06:59:15.834Z,6.93
2023-04-12T07:00:15.835Z,7.00
2023-04-12T07:01:15.841Z,7.05
2023-04-12T07:02:15.851Z,7.01
2023-04-12T07:03:15.872Z,7.08
2023-04-12T07:04:15.866Z,7.01
2023-04-12T07:05:15.754Z,7.00
2023-04-12T07:06:25.229Z,7.01
2023-04-12T07:07:17.761Z,7.01
2023-04-12T07:08:15.688Z,7.04
2023-04-12T07:09:15.671Z,6.96
2023-04-12T07:10:15.636Z,6.99
2023-04-12T07:11:21.597Z,6.99
2023-04-12T07:12:17.646Z,7.01
2023-04-12T07:13:15.629Z,7.01
2023-04-12T07:14:15.589Z,7.04
2023-04-12T07:15:15.622Z,7.04
2023-04-12T07:16:15.648Z,7.07
2023-04-12T07:17:15.582Z,6.97
2023-04-12T07:18:15.540Z,7.00
2023-04-12T07:19:15.566Z,7.01
2023-04-12T07:20:15.491Z,7.11
2023-04-12T07:21:15.536Z,7.01
2023-04-12T07:22:15.474Z,7.00
2023-04-12T07:23:15.561Z,6.97
2023-04-12T07:24:15.431Z,7.04
2023-04-12T07:25:15.403Z,6.96
2023-04-12T07:26:15.559Z,6.87
2023-04-12T07:27:15.393Z,6.94
2023-04-12T07:28:15.351Z,6.89
2023-04-12T07:29:15.330Z,6.94
2023-04-12T07:30:15.315Z,6.94
2023-04-12T07:31:15.310Z,6.79
2023-04-12T07:32:15.332Z,6.90
2023-04-12T07:33:19.569Z,6.79
2023-04-12T07:34:16.320Z,6.96
2023-04-12T07:35:15.257Z,6.93
2023-04-12T07:36:15.247Z,7.04
2023-04-12T07:37:15.230Z,6.91
2023-04-12T07:38:16.673Z,6.91
2023-04-12T07:39:16.171Z,6.93
2023-04-12T07:40:15.140Z,6.94
2023-04-12T07:41:15.152Z,6.97
2023-04-12T07:42:15.163Z,7.04
2023-04-12T07:43:15.144Z,6.99
2023-04-12T07:44:15.088Z,7.00
2023-04-12T07:45:15.071Z,6.99
2023-04-12T07:46:15.067Z,6.93
2023-04-12T07:47:15.081Z,6.96
2023-04-12T07:48:15.021Z,6.96
2023-04-12T07:49:15.003Z,6.91
2023-04-12T07:50:14.963Z,6.96
2023-04-12T07:51:14.958Z,6.96
2023-04-12T07:52:14.978Z,6.89
2023-04-12T07:53:14.960Z,6.86
2023-04-12T07:54:14.974Z,6.81
2023-04-12T07:55:14.923Z,6.87
2023-04-12T07:56:14.899Z,6.78
2023-04-12T07:57:14.853Z,6.81
2023-04-12T07:58:14.852Z,6.90
2023-04-12T07:59:14.869Z,6.82
2023-04-12T08:00:14.820Z,6.79
2023-04-12T08:01:14.822Z,6.76
2023-04-12T08:02:14.850Z,6.83
2023-04-12T08:03:14.879Z,6.81
2023-04-12T08:04:14.943Z,6.75
2023-04-12T08:05:14.740Z,6.87
2023-04-12T08:06:14.726Z,6.82
2023-04-12T08:07:14.752Z,6.89
2023-04-12T08:08:14.655Z,6.90
2023-04-12T08:09:14.633Z,6.97
2023-04-12T08:10:14.622Z,6.99
2023-04-12T08:11:14.606Z,7.00
2023-04-12T08:12:14.641Z,6.90
2023-04-12T08:13:14.601Z,7.01
2023-04-12T08:14:14.547Z,6.99
2023-04-12T08:15:14.555Z,6.94
2023-04-12T08:16:14.579Z,6.96
2023-04-12T08:17:14.557Z,6.96
2023-04-12T08:18:14.493Z,6.97
2023-04-12T08:19:14.474Z,7.07
2023-04-12T08:20:14.458Z,7.01
2023-04-12T08:21:14.453Z,7.12
2023-04-12T08:22:14.449Z,7.16
2023-04-12T08:23:14.398Z,7.11
2023-04-12T08:24:14.380Z,7.21
2023-04-12T08:25:14.377Z,7.19
2023-04-12T08:26:14.349Z,7.15
2023-04-12T08:27:14.427Z,7.16
2023-04-12T08:28:14.310Z,7.23
2023-04-12T08:29:14.321Z,7.29
2023-04-12T08:30:14.299Z,7.36
2023-04-12T08:31:14.271Z,7.33
2023-04-12T08:32:14.477Z,7.37
2023-04-12T08:33:14.227Z,7.36
2023-04-12T08:34:14.217Z,7.47
2023-04-12T08:35:14.182Z,7.48
2023-04-12T08:36:14.255Z,7.44
2023-04-12T08:37:14.185Z,7.51
2023-04-12T08:38:14.147Z,7.39
2023-04-12T08:39:14.137Z,7.45
2023-04-12T08:40:14.152Z,7.37
2023-04-12T08:41:14.800Z,7.44
2023-04-12T08:42:14.140Z,7.51
2023-04-12T08:43:14.148Z,7.48
2023-04-12T08:44:14.033Z,7.52
2023-04-12T08:45:14.050Z,7.52
2023-04-12T08:46:15.037Z,7.63
2023-04-12T08:47:14.008Z,7.55
2023-04-12T08:48:13.972Z,7.50
2023-04-12T08:49:13.975Z,7.55
2023-04-12T08:50:14.158Z,7.52
2023-04-12T08:51:13.956Z,7.47
2023-04-12T08:52:13.940Z,7.50
2023-04-12T08:53:13.896Z,7.55
2023-04-12T08:54:13.879Z,7.63
2023-04-12T08:55:13.861Z,7.69
2023-04-12T08:56:13.870Z,7.63
2023-04-12T08:57:13.859Z,7.55
2023-04-12T08:58:13.808Z,7.69
2023-04-12T08:59:13.846Z,7.58
2023-04-12T09:00:14.245Z,7.62
2023-04-12T09:01:13.745Z,7.67
2023-04-12T09:02:13.842Z,7.52
2023-04-12T09:03:13.961Z,7.58
2023-04-12T09:04:13.918Z,7.51
2023-04-12T09:05:13.702Z,7.63
2023-04-12T09:06:13.664Z,7.69
2023-04-12T09:07:13.699Z,7.70
2023-04-12T09:08:13.636Z,7.84
2023-04-12T09:09:13.610Z,7.77
2023-04-12T09:10:13.600Z,7.76
2023-04-12T09:11:13.577Z,7.88
2023-04-12T09:12:13.583Z,7.84
2023-04-12T09:13:13.554Z,7.82
2023-04-12T09:14:13.519Z,7.85
2023-04-12T09:15:13.762Z,7.81
2023-04-12T09:16:13.529Z,7.86
2023-04-12T09:17:13.503Z,7.77
2023-04-12T09:18:15.802Z,7.70
2023-04-12T09:19:13.444Z,7.71
2023-04-12T09:20:13.432Z,7.71
2023-04-12T09:21:13.416Z,7.73
2023-04-12T09:22:13.445Z,7.62
2023-04-12T09:23:13.363Z,7.70
2023-04-12T09:24:14.773Z,7.62
2023-04-12T09:25:14.344Z,7.62
2023-04-12T09:26:13.307Z,7.63
2023-04-12T09:27:13.347Z,7.52
2023-04-12T09:28:13.329Z,7.54
2023-04-12T09:29:13.263Z,7.69
2023-04-12T09:30:13.231Z,7.67
2023-04-12T09:31:13.386Z,7.73
2023-04-12T09:32:14.221Z,7.76
2023-04-12T09:33:13.247Z,7.76
2023-04-12T09:34:13.177Z,7.79
2023-04-12T09:35:13.179Z,7.74
2023-04-12T09:36:13.157Z,7.76
2023-04-12T09:37:13.203Z,7.73
2023-04-12T09:38:13.096Z,7.67
2023-04-12T09:39:13.131Z,7.60
2023-04-12T09:40:13.102Z,7.82
2023-04-12T09:41:13.071Z,7.73
2023-04-12T09:42:29.852Z,7.76
2023-04-12T09:43:15.013Z,7.86
2023-04-12T09:44:13.033Z,7.85
2023-04-12T09:45:12.991Z,7.81
2023-04-12T09:46:13.033Z,7.91
2023-04-12T09:47:13.014Z,7.95
2023-04-12T09:48:13.006Z,7.95
2023-04-12T09:49:12.943Z,8.04
2023-04-12T09:50:12.918Z,8.07
2023-04-12T09:51:12.910Z,8.07
2023-04-12T09:52:12.931Z,8.22
2023-04-12T09:53:12.885Z,8.12
2023-04-12T09:54:12.870Z,8.12
2023-04-12T09:55:12.844Z,8.02
2023-04-12T09:56:12.794Z,8.10
2023-04-12T09:57:12.895Z,8.12
2023-04-12T09:58:12.808Z,8.04
2023-04-12T09:59:12.762Z,8.09
2023-04-12T10:00:12.723Z,8.04
2023-04-12T10:01:13.131Z,8.21
2023-04-12T10:02:12.909Z,8.06
2023-04-12T10:03:12.929Z,8.04
2023-04-12T10:04:13.367Z,8.06
2023-04-12T10:05:12.741Z,8.03
2023-04-12T10:06:12.617Z,8.03
2023-04-12T10:07:14.864Z,8.04
2023-04-12T10:08:12.585Z,8.14
2023-04-12T10:09:12.603Z,8.02
2023-04-12T10:10:12.584Z,8.12
2023-04-12T10:11:12.585Z,7.91
2023-04-12T10:12:12.559Z,8.02
2023-04-12T10:13:12.515Z,7.86
2023-04-12T10:14:13.035Z,7.91
2023-04-12T10:15:44.423Z,8.06
2023-04-12T10:16:12.517Z,8.00
2023-04-12T10:17:12.538Z,8.02
2023-04-12T10:18:12.608Z,8.21
2023-04-12T10:19:12.481Z,8.20
2023-04-12T10:20:12.456Z,8.20
2023-04-12T10:21:12.394Z,8.17
2023-04-12T10:22:12.385Z,8.28
2023-04-12T10:23:12.350Z,8.29
2023-04-12T10:24:12.309Z,8.32
2023-04-12T10:25:12.310Z,8.36
2023-04-12T10:26:12.277Z,8.28
2023-04-12T10:27:12.300Z,8.43
2023-04-12T10:28:12.256Z,8.58
2023-04-12T10:29:12.240Z,8.57
2023-04-12T10:30:12.255Z,8.60
2023-04-12T10:31:12.260Z,8.65
2023-04-12T10:32:12.313Z,8.68
2023-04-12T10:33:12.238Z,8.54
2023-04-12T10:34:12.171Z,8.54
2023-04-12T10:35:12.172Z,8.47
2023-04-12T10:36:12.193Z,8.36
2023-04-12T10:37:12.142Z,8.36
2023-04-12T10:38:12.174Z,8.43
2023-04-12T10:39:12.061Z,8.36
2023-04-12T10:40:12.070Z,8.25
2023-04-12T10:41:12.029Z,8.24
2023-04-12T10:42:12.023Z,8.24
2023-04-12T10:43:12.070Z,8.20
2023-04-12T10:44:12.007Z,8.21
2023-04-12T10:45:12.000Z,8.24
2023-04-12T10:46:12.084Z,8.36
2023-04-12T10:47:11.971Z,8.28
2023-04-12T10:48:11.976Z,8.37
2023-04-12T10:49:11.889Z,8.25
2023-04-12T10:50:11.877Z,8.24
2023-04-12T10:51:12.949Z,8.22
2023-04-12T10:52:11.866Z,8.25
2023-04-12T10:53:11.855Z,8.29
2023-04-12T10:54:11.800Z,8.34
2023-04-12T10:55:11.803Z,8.29
2023-04-12T10:56:11.780Z,8.34
2023-04-12T10:57:11.797Z,8.25
2023-04-12T10:58:11.834Z,8.34
2023-04-12T10:59:11.735Z,8.40
2023-04-12T11:00:11.712Z,8.36
2023-04-12T11:01:11.940Z,8.42
2023-04-12T11:02:12.063Z,8.42
2023-04-12T11:03:12.494Z,8.50
2023-04-12T11:04:11.856Z,8.49
2023-04-12T11:05:11.882Z,8.45
2023-04-12T11:06:26.496Z,8.49
2023-04-12T11:07:13.571Z,8.47
2023-04-12T11:08:11.586Z,8.50
2023-04-12T11:09:11.575Z,8.55
2023-04-12T11:10:11.578Z,8.54
2023-04-12T11:11:11.617Z,8.49
2023-04-12T11:12:11.483Z,8.65
2023-04-12T11:13:11.528Z,8.57
2023-04-12T11:14:11.475Z,8.54
2023-04-12T11:15:11.500Z,8.63
2023-04-12T11:16:11.471Z,8.58
2023-04-12T11:17:11.534Z,8.54
2023-04-12T11:18:11.455Z,8.71
2023-04-12T11:19:11.370Z,8.73
2023-04-12T11:20:11.364Z,8.80
2023-04-12T11:21:11.377Z,8.78
2023-04-12T11:22:11.314Z,8.89
2023-04-12T11:23:11.689Z,9.00
2023-04-12T11:24:12.305Z,8.98
2023-04-12T11:25:11.276Z,9.10
2023-04-12T11:26:11.267Z,9.22
2023-04-12T11:27:11.230Z,9.08
2023-04-12T11:28:25.178Z,9.17
2023-04-12T11:29:13.209Z,9.38
2023-04-12T11:30:11.188Z,9.35
2023-04-12T11:31:11.234Z,9.49
2023-04-12T11:32:11.248Z,9.52
2023-04-12T11:33:11.204Z,9.49
2023-04-12T11:34:12.087Z,9.63
2023-04-12T11:35:11.170Z,9.63
2023-04-12T11:36:11.198Z,9.52
2023-04-12T11:37:11.102Z,9.53
2023-04-12T11:38:11.104Z,9.52
2023-04-12T11:39:11.041Z,9.60
2023-04-12T11:40:11.027Z,9.65
2023-04-12T11:41:11.017Z,9.74
2023-04-12T11:42:11.006Z,9.80
2023-04-12T11:43:11.013Z,9.86
2023-04-12T11:44:10.996Z,9.74
2023-04-12T11:45:15.893Z,9.83
2023-04-12T11:46:12.965Z,9.89
2023-04-12T11:47:10.903Z,9.86
2023-04-12T11:48:10.988Z,9.88
2023-04-12T11:49:10.891Z,10.07
2023-04-12T11:50:10.883Z,10.22
2023-04-12T11:51:11.736Z,10.24
2023-04-12T11:52:11.833Z,10.09
2023-04-12T11:53:10.840Z,10.09
2023-04-12T11:54:10.796Z,10.04
2023-04-12T11:55:10.776Z,10.02
2023-04-12T11:56:10.755Z,10.07
2023-04-12T11:57:10.745Z,10.02
2023-04-12T11:58:10.764Z,9.99
2023-04-12T11:59:10.703Z,10.06
2023-04-12T12:00:10.864Z,10.06
2023-04-12T12:01:10.674Z,10.09
2023-04-12T12:02:22.054Z,10.16
2023-04-12T12:03:12.868Z,10.17
2023-04-12T12:04:10.811Z,10.14
2023-04-12T12:05:10.782Z,9.96
2023-04-12T12:06:11.001Z,9.96
2023-04-12T12:07:10.666Z,10.09
2023-04-12T12:08:10.590Z,10.01
2023-04-12T12:09:10.547Z,10.02
2023-04-12T12:10:10.773Z,10.06
2023-04-12T12:11:10.562Z,10.29
2023-04-12T12:12:10.496Z,10.35
2023-04-12T12:13:10.516Z,10.38
2023-04-12T12:14:10.545Z,10.42
2023-04-12T12:15:10.474Z,10.29
2023-04-12T12:16:10.502Z,10.38
2023-04-12T12:17:10.488Z,10.32
2023-04-12T12:18:10.445Z,10.28
2023-04-12T12:19:10.447Z,10.04
2023-04-12T12:20:10.381Z,10.07
2023-04-12T12:21:10.350Z,10.02
2023-04-12T12:22:10.421Z,9.93
2023-04-12T12:23:10.418Z,9.73
2023-04-12T12:24:10.295Z,9.81
2023-04-12T12:25:10.268Z,9.88
2023-04-12T12:26:17.836Z,9.86
2023-04-12T12:27:12.284Z,9.71
2023-04-12T12:28:10.332Z,9.71
2023-04-12T12:29:10.247Z,9.71
2023-04-12T12:30:10.332Z,9.74
2023-04-12T12:31:10.269Z,9.77
2023-04-12T12:32:10.170Z,9.70
2023-04-12T12:33:10.224Z,9.89
2023-04-12T12:34:10.323Z,9.67
2023-04-12T12:35:10.160Z,9.83
2023-04-12T12:36:10.129Z,9.88
2023-04-12T12:37:10.081Z,9.83
2023-04-12T12:38:10.095Z,9.81
2023-04-12T12:39:10.041Z,9.88
2023-04-12T12:40:10.089Z,9.88
2023-04-12T12:41:10.027Z,9.93
2023-04-12T12:42:09.996Z,9.83
2023-04-12T12:43:10.077Z,9.86
2023-04-12T12:44:09.955Z,9.81
2023-04-12T12:45:09.967Z,9.91
2023-04-12T12:46:09.945Z,9.85
2023-04-12T12:47:13.969Z,9.96
2023-04-12T12:48:12.061Z,9.99
2023-04-12T12:49:09.876Z,10.10
2023-04-12T12:50:09.874Z,10.24
2023-04-12T12:51:09.845Z,10.25
2023-04-12T12:52:09.823Z,10.14
2023-04-12T12:53:09.844Z,10.24
2023-04-12T12:54:09.843Z,10.46
2023-04-12T12:55:09.786Z,10.57
2023-04-12T12:56:09.856Z,10.55
2023-04-12T12:57:09.842Z,10.55
2023-04-12T12:58:09.798Z,10.57
2023-04-12T12:59:09.721Z,10.75
2023-04-12T13:00:09.713Z,10.87
2023-04-12T13:01:09.695Z,11.08
2023-04-12T13:02:09.768Z,11.01
2023-04-12T13:03:10.043Z,11.09
2023-04-12T13:04:09.721Z,11.11
2023-04-12T13:05:11.815Z,11.20
2023-04-12T13:06:10.583Z,11.09
2023-04-12T13:07:09.567Z,11.06
2023-04-12T13:08:09.606Z,10.99
2023-04-12T13:09:09.543Z,11.09
2023-04-12T13:10:09.524Z,11.26
2023-04-12T13:11:09.519Z,11.35
2023-04-12T13:12:09.497Z,11.28
2023-04-12T13:13:09.499Z,11.41
2023-04-12T13:14:09.444Z,11.42
2023-04-12T13:15:21.025Z,11.33
2023-04-12T13:16:11.484Z,11.35